createdAt,value
2019-02-16T00:00:20.101Z,8.40
2019-02-16T00:02:52.707Z,8.40
2019-02-16T00:05:42.385Z,8.30
2019-02-16T00:08:23.853Z,8.30
2019-02-16T00:11:12.402Z,8.30
2019-02-16T00:13:58.283Z,8.30
2019-02-16T00:16:40.426Z,8.30
2019-02-16T00:19:23.629Z,8.30
2019-02-16T00:25:36.772Z,8.20
2019-02-16T00:31:34.687Z,8.30
2019-02-16T00:34:01.599Z,8.30
2019-02-16T00:36:47.791Z,8.30
2019-02-16T00:42:13.759Z,8.20
2019-02-16T00:44:56.183Z,8.20
2019-02-16T00:47:42.047Z,8.20
2019-02-16T00:50:24.225Z,8.10
2019-02-16T00:53:08.328Z,8.10
2019-02-16T00:55:51.396Z,8.00
2019-02-16T00:58:34.296Z,8.00
2019-02-16T01:01:35.655Z,7.90
2019-02-16T01:04:08.932Z,7.90
2019-02-16T01:06:50.809Z,7.90
2019-02-16T01:09:32.287Z,7.80
2019-02-16T01:12:14.754Z,7.80
2019-02-16T01:15:00.267Z,7.80
2019-02-16T01:17:44.978Z,7.80
2019-02-16T01:20:50.192Z,7.70
2019-02-16T01:23:39.096Z,7.70
2019-02-16T01:26:21.633Z,7.70
2019-02-16T01:29:03.560Z,7.60
2019-02-16T01:31:44.920Z,7.60
2019-02-16T01:34:27.896Z,7.60
2019-02-16T01:43:28.144Z,7.50
2019-02-16T01:46:10.003Z,7.50
2019-02-16T01:48:51.447Z,7.40
2019-02-16T01:51:32.893Z,7.40
2019-02-16T01:54:15.300Z,7.40
2019-02-16T01:56:59.241Z,7.40
2019-02-16T01:59:40.713Z,7.30
2019-02-16T02:02:23.356Z,7.30
2019-02-16T02:05:06.277Z,7.30
2019-02-16T02:07:47.592Z,7.30
2019-02-16T02:10:29.235Z,7.30
2019-02-16T02:13:10.230Z,7.20
2019-02-16T02:15:52.388Z,7.30
2019-02-16T02:18:34.041Z,7.30
2019-02-16T02:21:15.584Z,7.30
2019-02-16T02:23:56.510Z,7.30
2019-02-16T02:26:39.394Z,7.40
2019-02-16T02:29:20.924Z,7.30
2019-02-16T02:32:01.830Z,7.30
2019-02-16T02:34:43.253Z,7.30
2019-02-16T02:37:24.696Z,7.30
2019-02-16T02:40:05.614Z,7.30
2019-02-16T02:42:47.205Z,7.30
2019-02-16T02:45:28.761Z,7.30
2019-02-16T02:48:11.520Z,7.20
2019-02-16T02:50:52.444Z,7.20
2019-02-16T02:53:34.798Z,7.20
2019-02-16T02:56:39.620Z,7.10
2019-02-16T02:59:09.977Z,7.10
2019-02-16T03:01:52.594Z,7.00
2019-02-16T03:04:34.428Z,7.00
2019-02-16T03:07:16.259Z,6.90
2019-02-16T03:09:57.596Z,6.90
2019-02-16T03:12:41.837Z,6.90
2019-02-16T03:15:25.960Z,6.90
2019-02-16T03:18:24.826Z,6.80
2019-02-16T03:20:58.567Z,6.90
2019-02-16T03:23:40.125Z,6.80
2019-02-16T03:29:30.603Z,6.80
2019-02-16T03:32:13.256Z,6.80
2019-02-16T03:34:54.991Z,6.80
2019-02-16T03:37:36.249Z,6.80
2019-02-16T03:40:17.718Z,6.80
2019-02-16T03:43:03.451Z,6.80
2019-02-16T03:45:44.589Z,6.80
2019-02-16T03:48:25.902Z,6.70
2019-02-16T03:51:07.106Z,6.70
2019-02-16T03:53:50.128Z,6.70
2019-02-16T03:56:33.652Z,6.70
2019-02-16T03:59:15.464Z,6.70
2019-02-16T04:01:56.725Z,6.60
2019-02-16T04:04:44.582Z,6.60
2019-02-16T04:10:39.797Z,6.60
2019-02-16T04:13:20.939Z,6.50
2019-02-16T04:16:02.192Z,6.50
2019-02-16T04:18:43.000Z,6.50
2019-02-16T04:21:24.451Z,6.50
2019-02-16T04:24:05.782Z,6.40
2019-02-16T04:26:47.652Z,6.40
2019-02-16T04:29:28.797Z,6.40
2019-02-16T04:32:09.584Z,6.40
2019-02-16T04:34:51.342Z,6.40
2019-02-16T04:37:32.415Z,6.30
2019-02-16T04:40:13.908Z,6.30
2019-02-16T04:42:55.458Z,6.30
2019-02-16T04:45:37.209Z,6.20
2019-02-16T04:48:18.145Z,6.20
2019-02-16T04:50:59.868Z,6.20
2019-02-16T04:53:41.403Z,6.20
2019-02-16T04:56:22.282Z,6.10
2019-02-16T04:59:03.787Z,6.10
2019-02-16T05:01:45.247Z,6.10
2019-02-16T05:04:26.464Z,6.10
2019-02-16T05:07:08.062Z,6.10
2019-02-16T05:09:49.066Z,6.10
2019-02-16T05:12:30.558Z,6.10
2019-02-16T05:15:11.385Z,6.00
2019-02-16T05:17:53.011Z,6.00
2019-02-16T05:20:34.649Z,6.10
2019-02-16T05:23:16.296Z,6.10
2019-02-16T05:25:57.351Z,6.10
2019-02-16T05:28:38.612Z,6.10
2019-02-16T05:31:19.989Z,6.00
2019-02-16T05:34:00.944Z,6.00
2019-02-16T05:36:42.173Z,6.00
2019-02-16T05:39:23.633Z,6.00
2019-02-16T05:42:05.575Z,6.00
2019-02-16T05:44:47.132Z,6.00
2019-02-16T05:47:28.921Z,6.00
2019-02-16T05:50:10.395Z,6.10
2019-02-16T05:52:54.380Z,5.90
2019-02-16T05:58:16.689Z,5.90
2019-02-16T06:00:58.527Z,5.90
2019-02-16T06:03:39.946Z,5.90
2019-02-16T06:06:21.600Z,5.90
2019-02-16T06:09:04.776Z,5.90
2019-02-16T06:11:47.252Z,5.80
2019-02-16T06:14:30.180Z,5.80
2019-02-16T06:17:11.738Z,5.80
2019-02-16T06:19:53.260Z,5.80
2019-02-16T06:22:35.025Z,5.80
2019-02-16T06:25:16.754Z,5.80
2019-02-16T06:27:58.263Z,5.80
2019-02-16T06:30:39.924Z,5.70
2019-02-16T06:33:21.797Z,5.70
2019-02-16T06:36:12.862Z,5.70
2019-02-16T06:38:54.657Z,5.70
2019-02-16T06:41:35.567Z,5.70
2019-02-16T06:44:17.304Z,5.70
2019-02-16T06:46:59.364Z,5.70
2019-02-16T06:49:40.938Z,5.70
2019-02-16T06:52:23.601Z,5.70
2019-02-16T06:55:06.380Z,5.70
2019-02-16T06:57:50.213Z,5.70
2019-02-16T07:00:33.692Z,5.70
2019-02-16T07:03:15.294Z,5.70
2019-02-16T07:05:56.625Z,5.70
2019-02-16T07:08:38.820Z,5.70
2019-02-16T07:11:19.997Z,5.80
2019-02-16T07:14:01.300Z,5.80
2019-02-16T07:19:54.829Z,5.80
2019-02-16T07:22:46.130Z,5.80
2019-02-16T07:25:28.102Z,5.80
2019-02-16T07:28:10.190Z,5.80
2019-02-16T07:30:51.424Z,5.80
2019-02-16T07:33:32.948Z,5.90
2019-02-16T07:36:17.773Z,5.90
2019-02-16T07:38:58.442Z,5.90
2019-02-16T07:41:40.085Z,5.90
2019-02-16T07:47:45.871Z,6.00
2019-02-16T07:50:48.937Z,6.00
2019-02-16T07:53:39.698Z,6.10
2019-02-16T07:56:31.578Z,6.20
2019-02-16T07:59:35.223Z,6.20
2019-02-16T08:02:19.177Z,6.30
2019-02-16T08:04:56.849Z,6.40
2019-02-16T08:07:44.181Z,6.40
2019-02-16T08:10:36.719Z,6.50
2019-02-16T08:13:28.610Z,6.50
2019-02-16T08:16:20.354Z,6.50
2019-02-16T08:19:14.937Z,6.60
2019-02-16T08:21:58.521Z,6.70
2019-02-16T08:24:50.102Z,6.70
2019-02-16T08:27:38.729Z,6.80
2019-02-16T08:30:26.382Z,6.90
2019-02-16T08:33:17.304Z,6.90
2019-02-16T08:36:25.269Z,7.00
2019-02-16T08:42:27.910Z,7.20
2019-02-16T08:45:34.068Z,7.30
2019-02-16T08:48:22.210Z,7.40
2019-02-16T08:51:22.093Z,7.40
2019-02-16T08:54:23.201Z,7.50
2019-02-16T08:57:28.904Z,7.60
2019-02-16T09:00:36.964Z,7.70
2019-02-16T09:06:32.227Z,7.80
2019-02-16T09:09:33.727Z,7.90
2019-02-16T09:12:43.470Z,7.90
2019-02-16T09:21:32.724Z,8.20
2019-02-16T09:24:21.509Z,8.30
2019-02-16T09:27:21.403Z,8.40
2019-02-16T09:30:21.963Z,8.40
2019-02-16T09:33:31.184Z,8.50
2019-02-16T09:36:39.145Z,8.60
2019-02-16T09:39:47.451Z,8.80
2019-02-16T09:43:01.741Z,8.80
2019-02-16T09:52:52.271Z,9.10
2019-02-16T09:55:30.719Z,9.20
2019-02-16T09:58:31.341Z,9.30
2019-02-16T10:01:31.401Z,9.40
2019-02-16T10:04:31.949Z,9.50
2019-02-16T10:07:34.194Z,9.50
2019-02-16T10:10:51.769Z,9.60
2019-02-16T10:13:41.399Z,9.80
2019-02-16T10:16:42.798Z,9.90
2019-02-16T10:19:43.141Z,10.00
2019-02-16T10:22:49.822Z,10.10
2019-02-16T10:29:06.821Z,10.40
2019-02-16T10:31:54.915Z,10.50
2019-02-16T10:34:48.423Z,10.60
2019-02-16T10:37:40.060Z,10.70
2019-02-16T10:40:25.274Z,10.80
2019-02-16T10:43:28.377Z,10.90
2019-02-16T10:46:38.641Z,11.00
2019-02-16T10:49:43.225Z,11.10
2019-02-16T10:52:37.081Z,11.30
2019-02-16T10:55:31.447Z,11.40
2019-02-16T10:58:42.023Z,11.50
2019-02-16T11:01:39.606Z,11.70
2019-02-16T11:04:37.938Z,12.00
2019-02-16T11:07:17.355Z,12.20
2019-02-16T11:10:01.200Z,12.80
2019-02-16T11:13:02.416Z,13.90
2019-02-16T11:15:44.576Z,15.60
2019-02-16T11:18:32.268Z,17.50
2019-02-16T11:21:31.314Z,18.90
2019-02-16T11:24:23.897Z,19.90
2019-02-16T11:27:07.929Z,20.60
2019-02-16T11:30:07.655Z,20.80
2019-02-16T11:32:57.653Z,21.20
2019-02-16T11:35:49.372Z,21.40
2019-02-16T11:38:39.551Z,21.50
2019-02-16T11:41:19.006Z,21.40
2019-02-16T11:44:19.880Z,21.90
2019-02-16T11:47:07.787Z,22.40
2019-02-16T11:50:24.242Z,23.40
2019-02-16T11:53:35.738Z,23.60
2019-02-16T11:56:29.511Z,23.30
2019-02-16T11:59:12.848Z,23.40
2019-02-16T12:02:20.082Z,23.50
2019-02-16T12:04:56.670Z,23.30
2019-02-16T12:07:46.287Z,23.30
2019-02-16T12:10:34.562Z,23.50
2019-02-16T12:13:22.583Z,23.70
2019-02-16T12:16:14.225Z,23.40
2019-02-16T12:19:01.570Z,23.40
2019-02-16T12:21:42.735Z,23.30
2019-02-16T12:24:20.292Z,22.80
2019-02-16T12:27:15.219Z,23.10
2019-02-16T12:30:06.461Z,23.30
2019-02-16T12:33:02.206Z,23.30
2019-02-16T12:35:49.931Z,23.30
2019-02-16T12:38:32.054Z,23.20
2019-02-16T12:41:07.224Z,23.10
2019-02-16T12:43:58.431Z,23.30
2019-02-16T12:46:47.322Z,23.40
2019-02-16T12:49:55.396Z,23.70
2019-02-16T12:53:22.215Z,24.00
2019-02-16T12:56:23.005Z,24.20
2019-02-16T12:59:23.202Z,24.20
2019-02-16T13:02:27.682Z,24.00
2019-02-16T13:08:30.420Z,24.00
2019-02-16T13:11:30.179Z,24.30
2019-02-16T13:17:40.382Z,24.20
2019-02-16T13:20:29.634Z,24.70
2019-02-16T13:23:37.619Z,24.90
2019-02-16T13:27:06.310Z,24.10
2019-02-16T13:33:12.444Z,24.10
2019-02-16T13:36:13.214Z,24.10
2019-02-16T13:42:16.045Z,24.80
2019-02-16T13:48:38.336Z,24.60
2019-02-16T13:51:26.024Z,24.20
2019-02-16T13:57:33.206Z,24.20
2019-02-16T14:00:23.507Z,23.80
2019-02-16T14:03:30.253Z,23.60
2019-02-16T14:06:14.798Z,24.00
2019-02-16T14:09:05.925Z,24.40
2019-02-16T14:12:12.935Z,24.40
2019-02-16T14:15:21.814Z,24.40
2019-02-16T14:17:55.693Z,24.40
2019-02-16T14:20:28.092Z,24.80
2019-02-16T14:23:08.472Z,25.10
2019-02-16T14:25:47.240Z,25.60
2019-02-16T14:28:38.178Z,25.10
2019-02-16T14:31:28.233Z,24.60
2019-02-16T14:40:31.404Z,23.10
2019-02-16T14:43:13.654Z,22.90
2019-02-16T14:45:55.236Z,23.10
2019-02-16T14:52:36.627Z,23.70
2019-02-16T14:57:58.323Z,22.60
2019-02-16T15:03:34.653Z,20.20
2019-02-16T15:06:23.839Z,19.30
2019-02-16T15:09:05.334Z,18.70
2019-02-16T15:12:14.085Z,18.30
2019-02-16T15:18:15.725Z,17.90
2019-02-16T15:21:18.784Z,17.70
2019-02-16T15:24:02.120Z,17.70
2019-02-16T15:26:38.385Z,18.00
2019-02-16T15:32:47.184Z,18.40
2019-02-16T15:35:32.065Z,18.30
2019-02-16T15:38:06.134Z,18.00
2019-02-16T15:46:19.414Z,17.50
2019-02-16T15:49:07.714Z,17.20
2019-02-16T15:51:49.688Z,17.10
2019-02-16T15:57:39.910Z,17.00
2019-02-16T16:03:30.018Z,16.80
2019-02-16T16:06:11.444Z,16.70
2019-02-16T16:09:00.701Z,16.60
2019-02-16T16:12:08.836Z,16.50
2019-02-16T16:15:13.655Z,16.40
2019-02-16T16:21:32.421Z,16.20
2019-02-16T16:25:04.593Z,16.10
2019-02-16T16:27:46.212Z,15.90
2019-02-16T16:31:04.092Z,15.80
2019-02-16T16:33:52.642Z,15.70
2019-02-16T16:39:39.231Z,15.50
2019-02-16T16:42:48.193Z,15.40
2019-02-16T16:45:48.646Z,15.30
2019-02-16T16:48:50.919Z,15.20
2019-02-16T16:51:48.704Z,15.10
2019-02-16T17:01:01.841Z,14.80
2019-02-16T17:03:52.192Z,14.90
2019-02-16T17:06:58.109Z,15.00
2019-02-16T17:09:51.510Z,15.00
2019-02-16T17:12:39.631Z,15.10
2019-02-16T17:15:50.535Z,15.10
2019-02-16T17:18:45.507Z,15.20
2019-02-16T17:21:48.661Z,15.10
2019-02-16T17:24:49.846Z,14.90
2019-02-16T17:27:49.752Z,14.90
2019-02-16T17:30:35.000Z,14.90
2019-02-16T17:33:43.416Z,14.90
2019-02-16T17:36:46.673Z,14.80
2019-02-16T17:39:35.672Z,14.70
2019-02-16T17:42:33.435Z,14.70
2019-02-16T17:45:20.684Z,14.80
2019-02-16T17:48:49.054Z,14.70
2019-02-16T17:52:09.816Z,14.60
2019-02-16T17:55:19.431Z,14.60
2019-02-16T17:58:17.239Z,14.50
2019-02-16T18:01:14.099Z,14.30
2019-02-16T18:04:20.777Z,14.30
2019-02-16T18:07:16.773Z,14.30
2019-02-16T18:10:18.533Z,14.20
2019-02-16T18:13:04.971Z,14.10
2019-02-16T18:16:14.165Z,14.10
2019-02-16T18:19:34.373Z,14.20
2019-02-16T18:22:19.789Z,14.30
2019-02-16T18:25:43.359Z,14.30
2019-02-16T18:29:03.742Z,14.20
2019-02-16T18:40:26.819Z,14.10
2019-02-16T19:09:29.128Z,13.50
2019-02-16T19:15:56.245Z,13.30
2019-02-16T19:35:45.165Z,13.30
2019-02-16T19:38:34.574Z,13.20
2019-02-16T19:48:32.383Z,13.00
2019-02-16T19:51:27.843Z,12.90
2019-02-16T19:54:29.459Z,12.80
2019-02-16T20:00:20.574Z,12.70
2019-02-16T20:06:30.879Z,12.50
2019-02-16T20:15:27.804Z,12.20
2019-02-16T20:18:32.113Z,12.20
2019-02-16T20:21:30.105Z,12.10
2019-02-16T20:24:39.719Z,12.10
2019-02-16T20:27:49.196Z,11.90
2019-02-16T20:30:50.081Z,11.90
2019-02-16T20:33:51.417Z,11.90
2019-02-16T20:40:01.088Z,11.80
2019-02-16T20:43:10.394Z,11.90
2019-02-16T20:49:16.887Z,11.70
2019-02-16T20:52:25.086Z,11.60
2019-02-16T20:59:09.524Z,11.50
2019-02-16T21:02:27.865Z,11.50
2019-02-16T21:08:48.847Z,11.60
2019-02-16T21:18:06.386Z,11.30
2019-02-16T21:21:14.593Z,11.20
2019-02-16T21:24:24.091Z,11.10
2019-02-16T21:27:42.485Z,11.20
2019-02-16T21:33:31.094Z,11.10
2019-02-16T21:36:31.166Z,10.90
2019-02-16T21:39:35.340Z,10.70
2019-02-16T21:42:32.024Z,10.60
2019-02-16T21:45:20.376Z,10.60
2019-02-16T21:48:12.096Z,10.50
2019-02-16T21:51:06.433Z,10.40
2019-02-16T21:53:46.926Z,10.30
2019-02-16T21:56:37.390Z,10.30
2019-02-16T21:59:44.294Z,10.30
2019-02-16T22:02:47.112Z,10.30
2019-02-16T22:05:37.670Z,10.20
2019-02-16T22:08:41.586Z,10.10
2019-02-16T22:11:42.409Z,10.00
2019-02-16T22:14:29.017Z,9.90
2019-02-16T22:17:11.776Z,9.80
2019-02-16T22:19:45.045Z,9.70
2019-02-16T22:22:22.296Z,9.70
2019-02-16T22:25:05.452Z,9.60
2019-02-16T22:27:35.610Z,9.60
2019-02-16T22:30:16.223Z,9.60
2019-02-16T22:32:59.098Z,9.50
2019-02-16T22:35:51.376Z,9.40
2019-02-16T22:38:28.198Z,9.40
2019-02-16T22:41:01.519Z,9.40
2019-02-16T22:43:55.205Z,9.40
2019-02-16T22:46:39.251Z,9.40
2019-02-16T22:49:15.540Z,9.30
2019-02-16T22:52:03.022Z,9.20
2019-02-16T22:54:45.472Z,9.20
2019-02-16T22:57:26.628Z,9.10
2019-02-16T23:00:10.135Z,9.10
2019-02-16T23:02:45.691Z,9.10
2019-02-16T23:05:33.501Z,9.10
2019-02-16T23:08:16.881Z,9.00
2019-02-16T23:15:08.253Z,8.90
2019-02-16T23:17:49.513Z,9.00
2019-02-16T23:20:31.227Z,8.90
2019-02-16T23:23:03.096Z,8.90
2019-02-16T23:25:33.038Z,8.90
2019-02-16T23:28:23.828Z,8.80
2019-02-16T23:30:57.283Z,8.70
2019-02-16T23:33:52.808Z,8.70
2019-02-16T23:36:39.840Z,8.70
2019-02-16T23:42:06.249Z,8.50
2019-02-16T23:44:48.383Z,8.40
2019-02-16T23:47:30.082Z,8.40
2019-02-16T23:50:01.077Z,8.40
2019-02-16T23:53:10.209Z,8.30
2019-02-16T23:56:04.186Z,8.30
2019-02-16T23:58:49.229Z,8.20
